sensor_id;sensor_type;location;lat;lon;timestamp;P1;durP1;ratioP1;P2;durP2;ratioP2
61675;SDS011;47574;52.090;5.244;2023-03-24T00:01:00;6.9;;;3.6;;
61675;SDS011;47574;52.090;5.244;2023-03-24T00:04:14;6.8;;;3.2;;
61675;SDS011;47574;52.090;5.244;2023-03-24T00:05:53;6.9;;;3.5;;
61675;SDS011;47574;52.090;5.244;2023-03-24T00:07:31;7.1;;;3.6;;
61675;SDS011;47574;52.090;5.244;2023-03-24T00:09:07;7.7;;;3.6;;
61675;SDS011;47574;52.090;5.244;2023-03-24T00:12:20;7.4;;;3.6;;
61675;SDS011;47574;52.090;5.244;2023-03-24T00:13:56;7.9;;;3.8;;
61675;SDS011;47574;52.090;5.244;2023-03-24T00:15:32;6.8;;;3.9;;
61675;SDS011;47574;52.090;5.244;2023-03-24T00:18:45;6.0;;;3.4;;
61675;SDS011;47574;52.090;5.244;2023-03-24T00:20:22;4.61;;;3.2;;
61675;SDS011;47574;52.090;5.244;2023-03-24T00:22:00;8.31;;;3.9;;
61675;SDS011;47574;52.090;5.244;2023-03-24T00:25:12;6.8;;;3.4;;
61675;SDS011;47574;52.090;5.244;2023-03-24T00:26:49;5.8;;;3.5;;
61675;SDS011;47574;52.090;5.244;2023-03-24T00:28:25;5.6;;;3.5;;
61675;SDS011;47574;52.090;5.244;2023-03-24T00:30:03;6.0;;;3.6;;
61675;SDS011;47574;52.090;5.244;2023-03-24T00:33:17;5.8;;;3.2;;
61675;SDS011;47574;52.090;5.244;2023-03-24T00:34:53;6.7;;;3.4;;
61675;SDS011;47574;52.090;5.244;2023-03-24T00:36:29;6.6;;;3.8;;
61675;SDS011;47574;52.090;5.244;2023-03-24T00:39:41;7.3;;;3.8;;
61675;SDS011;47574;52.090;5.244;2023-03-24T00:41:17;5.5;;;3.6;;
61675;SDS011;47574;52.090;5.244;2023-03-24T00:42:54;5.7;;;3.2;;
61675;SDS011;47574;52.090;5.244;2023-03-24T00:46:09;6.4;;;3.7;;
61675;SDS011;47574;52.090;5.244;2023-03-24T00:47:47;4.0;;;3.2;;
61675;SDS011;47574;52.090;5.244;2023-03-24T00:49:25;5.0;;;3.4;;
61675;SDS011;47574;52.090;5.244;2023-03-24T00:51:05;6.2;;;3.6;;
61675;SDS011;47574;52.090;5.244;2023-03-24T00:54:19;6.6;;;3.4;;
61675;SDS011;47574;52.090;5.244;2023-03-24T00:55:56;6.6;;;3.4;;
61675;SDS011;47574;52.090;5.244;2023-03-24T00:57:33;7.2;;;3.2;;
61675;SDS011;47574;52.090;5.244;2023-03-24T01:00:45;4.41;;;3.2;;
61675;SDS011;47574;52.090;5.244;2023-03-24T01:02:25;5.9;;;3.3;;
61675;SDS011;47574;52.090;5.244;2023-03-24T01:04:01;5.3;;;3.5;;
61675;SDS011;47574;52.090;5.244;2023-03-24T01:05:40;5.11;;;3.5;;
61675;SDS011;47574;52.090;5.244;2023-03-24T01:08:52;6.1;;;3.4;;
61675;SDS011;47574;52.090;5.244;2023-03-24T01:10:30;5.6;;;3.5;;
61675;SDS011;47574;52.090;5.244;2023-03-24T01:12:10;5.0;;;3.8;;
61675;SDS011;47574;52.090;5.244;2023-03-24T01:15:28;6.6;;;3.2;;
61675;SDS011;47574;52.090;5.244;2023-03-24T01:17:06;4.5;;;3.4;;
61675;SDS011;47574;52.090;5.244;2023-03-24T01:18:42;5.6;;;3.2;;
61675;SDS011;47574;52.090;5.244;2023-03-24T01:20:20;3.9;;;3.5;;
61675;SDS011;47574;52.090;5.244;2023-03-24T01:23:34;4.0;;;3.2;;
61675;SDS011;47574;52.090;5.244;2023-03-24T01:25:10;4.8;;;3.6;;
61675;SDS011;47574;52.090;5.244;2023-03-24T01:26:48;4.5;;;3.5;;
61675;SDS011;47574;52.090;5.244;2023-03-24T01:30:00;6.6;;;3.6;;
61675;SDS011;47574;52.090;5.244;2023-03-24T01:31:38;5.0;;;3.6;;
61675;SDS011;47574;52.090;5.244;2023-03-24T01:33:15;5.4;;;3.4;;
61675;SDS011;47574;52.090;5.244;2023-03-24T01:34:52;5.6;;;3.2;;
61675;SDS011;47574;52.090;5.244;2023-03-24T01:38:05;5.8;;;3.2;;
61675;SDS011;47574;52.090;5.244;2023-03-24T01:39:42;4.8;;;3.3;;
61675;SDS011;47574;52.090;5.244;2023-03-24T01:41:18;5.2;;;3.2;;
61675;SDS011;47574;52.090;5.244;2023-03-24T01:44:32;5.2;;;3.5;;
61675;SDS011;47574;52.090;5.244;2023-03-24T01:46:13;4.41;;;3.1;;
61675;SDS011;47574;52.090;5.244;2023-03-24T01:47:52;5.11;;;3.2;;
61675;SDS011;47574;52.090;5.244;2023-03-24T01:49:30;5.7;;;3.3;;
61675;SDS011;47574;52.090;5.244;2023-03-24T01:52:51;4.8;;;3.3;;
61675;SDS011;47574;52.090;5.244;2023-03-24T01:54:28;4.2;;;3.2;;
61675;SDS011;47574;52.090;5.244;2023-03-24T01:56:08;4.2;;;3.2;;
61675;SDS011;47574;52.090;5.244;2023-03-24T01:57:48;5.7;;;3.7;;
61675;SDS011;47574;52.090;5.244;2023-03-24T02:01:09;5.7;;;3.7;;
61675;SDS011;47574;52.090;5.244;2023-03-24T02:02:45;5.3;;;3.7;;
61675;SDS011;47574;52.090;5.244;2023-03-24T02:04:25;3.9;;;3.3;;
61675;SDS011;47574;52.090;5.244;2023-03-24T02:07:38;4.61;;;3.4;;
61675;SDS011;47574;52.090;5.244;2023-03-24T02:09:20;4.8;;;3.7;;
61675;SDS011;47574;52.090;5.244;2023-03-24T02:10:57;5.11;;;3.3;;
61675;SDS011;47574;52.090;5.244;2023-03-24T02:12:35;4.61;;;3.4;;
61675;SDS011;47574;52.090;5.244;2023-03-24T02:15:51;4.3;;;3.4;;
61675;SDS011;47574;52.090;5.244;2023-03-24T02:17:51;5.3;;;3.8;;
61675;SDS011;47574;52.090;5.244;2023-03-24T02:19:45;4.5;;;3.7;;
61675;SDS011;47574;52.090;5.244;2023-03-24T02:23:19;6.5;;;4.5;;
61675;SDS011;47574;52.090;5.244;2023-03-24T02:27:41;5.7;;;4.1;;
61675;SDS011;47574;52.090;5.244;2023-03-24T02:32:25;2.6;;;2.0;;
61675;SDS011;47574;52.090;5.244;2023-03-24T02:39:50;3.6;;;2.0;;
61675;SDS011;47574;52.090;5.244;2023-03-24T02:43:32;2.4;;;2.0;;
61675;SDS011;47574;52.090;5.244;2023-03-24T02:45:22;3.3;;;2.31;;
61675;SDS011;47574;52.090;5.244;2023-03-24T02:47:05;3.2;;;2.1;;
61675;SDS011;47574;52.090;5.244;2023-03-24T02:48:55;2.7;;;1.9;;
61675;SDS011;47574;52.090;5.244;2023-03-24T02:50:47;2.9;;;1.8;;
61675;SDS011;47574;52.090;5.244;2023-03-24T02:52:28;2.31;;;1.8;;
61675;SDS011;47574;52.090;5.244;2023-03-24T02:55:55;2.8;;;1.5;;
61675;SDS011;47574;52.090;5.244;2023-03-24T02:57:35;2.6;;;1.6;;
61675;SDS011;47574;52.090;5.244;2023-03-24T02:59:18;2.6;;;1.11;;
61675;SDS011;47574;52.090;5.244;2023-03-24T03:01:04;3.0;;;1.3;;
61675;SDS011;47574;52.090;5.244;2023-03-24T03:02:45;4.41;;;1.11;;
61675;SDS011;47574;52.090;5.244;2023-03-24T03:06:08;4.2;;;1.3;;
61675;SDS011;47574;52.090;5.244;2023-03-24T03:07:49;3.7;;;1.3;;
61675;SDS011;47574;52.090;5.244;2023-03-24T03:09:31;4.41;;;1.11;;
61675;SDS011;47574;52.090;5.244;2023-03-24T03:11:11;3.7;;;1.3;;
61675;SDS011;47574;52.090;5.244;2023-03-24T03:14:33;5.6;;;1.3;;
61675;SDS011;47574;52.090;5.244;2023-03-24T03:16:14;2.8;;;1.11;;
61675;SDS011;47574;52.090;5.244;2023-03-24T03:17:56;3.9;;;1.3;;
61675;SDS011;47574;52.090;5.244;2023-03-24T03:19:40;3.9;;;1.3;;
61675;SDS011;47574;52.090;5.244;2023-03-24T03:23:00;4.0;;;1.3;;
61675;SDS011;47574;52.090;5.244;2023-03-24T03:24:43;4.0;;;1.5;;
61675;SDS011;47574;52.090;5.244;2023-03-24T03:26:22;3.9;;;1.5;;
61675;SDS011;47574;52.090;5.244;2023-03-24T03:28:01;5.6;;;1.6;;
61675;SDS011;47574;52.090;5.244;2023-03-24T03:31:23;6.7;;;1.8;;
61675;SDS011;47574;52.090;5.244;2023-03-24T03:33:04;5.8;;;1.6;;
61675;SDS011;47574;52.090;5.244;2023-03-24T03:34:45;4.7;;;1.5;;
61675;SDS011;47574;52.090;5.244;2023-03-24T03:36:27;7.2;;;2.0;;
61675;SDS011;47574;52.090;5.244;2023-03-24T03:39:53;5.6;;;1.5;;
61675;SDS011;47574;52.090;5.244;2023-03-24T03:41:33;8.5;;;2.1;;
61675;SDS011;47574;52.090;5.244;2023-03-24T03:43:09;8.81;;;1.9;;
61675;SDS011;47574;52.090;5.244;2023-03-24T03:44:45;7.7;;;2.31;;
61675;SDS011;47574;52.090;5.244;2023-03-24T03:47:57;8.1;;;2.6;;
61675;SDS011;47574;52.090;5.244;2023-03-24T03:49:34;7.6;;;2.7;;
61675;SDS011;47574;52.090;5.244;2023-03-24T03:51:11;11.0;;;2.9;;
61675;SDS011;47574;52.090;5.244;2023-03-24T03:54:25;12.0;;;3.1;;
61675;SDS011;47574;52.090;5.244;2023-03-24T03:56:04;10.6;;;3.0;;
61675;SDS011;47574;52.090;5.244;2023-03-24T03:57:42;10.7;;;2.8;;
61675;SDS011;47574;52.090;5.244;2023-03-24T03:59:23;7.3;;;3.0;;
61675;SDS011;47574;52.090;5.244;2023-03-24T04:02:42;11.0;;;3.1;;
61675;SDS011;47574;52.090;5.244;2023-03-24T04:04:52;11.8;;;2.9;;
61675;SDS011;47574;52.090;5.244;2023-03-24T04:07:07;8.6;;;2.5;;
61675;SDS011;47574;52.090;5.244;2023-03-24T04:08:49;8.6;;;2.5;;
61675;SDS011;47574;52.090;5.244;2023-03-24T04:10:35;10.6;;;2.7;;
61675;SDS011;47574;52.090;5.244;2023-03-24T04:12:32;10.6;;;2.7;;
61675;SDS011;47574;52.090;5.244;2023-03-24T04:15:17;10.7;;;2.31;;
61675;SDS011;47574;52.090;5.244;2023-03-24T04:17:11;9.81;;;2.6;;
61675;SDS011;47574;52.090;5.244;2023-03-24T04:19:04;12.2;;;2.5;;
61675;SDS011;47574;52.090;5.244;2023-03-24T04:20:52;10.8;;;2.6;;
61675;SDS011;47574;52.090;5.244;2023-03-24T04:22:51;11.7;;;2.8;;
61675;SDS011;47574;52.090;5.244;2023-03-24T04:24:39;10.7;;;2.7;;
61675;SDS011;47574;52.090;5.244;2023-03-24T04:26:23;11.8;;;3.0;;
61675;SDS011;47574;52.090;5.244;2023-03-24T04:29:59;15.3;;;3.0;;
61675;SDS011;47574;52.090;5.244;2023-03-24T04:31:43;11.3;;;2.7;;
61675;SDS011;47574;52.090;5.244;2023-03-24T04:33:28;15.7;;;3.1;;
61675;SDS011;47574;52.090;5.244;2023-03-24T04:35:16;11.8;;;3.1;;
61675;SDS011;47574;52.090;5.244;2023-03-24T04:37:00;14.5;;;3.1;;
61675;SDS011;47574;52.090;5.244;2023-03-24T04:40:22;16.9;;;3.4;;
61675;SDS011;47574;52.090;5.244;2023-03-24T04:42:00;17.11;;;4.0;;
61675;SDS011;47574;52.090;5.244;2023-03-24T04:43:39;17.41;;;3.6;;
61675;SDS011;47574;52.090;5.244;2023-03-24T04:45:15;14.0;;;3.5;;
61675;SDS011;47574;52.090;5.244;2023-03-24T04:48:32;16.8;;;3.6;;
61675;SDS011;47574;52.090;5.244;2023-03-24T04:50:08;20.0;;;4.2;;
61675;SDS011;47574;52.090;5.244;2023-03-24T04:51:47;20.7;;;4.2;;
61675;SDS011;47574;52.090;5.244;2023-03-24T04:55:01;19.0;;;3.6;;
61675;SDS011;47574;52.090;5.244;2023-03-24T04:56:46;25.0;;;4.1;;
61675;SDS011;47574;52.090;5.244;2023-03-24T04:58:25;19.3;;;3.3;;
61675;SDS011;47574;52.090;5.244;2023-03-24T05:00:01;19.91;;;3.8;;
61675;SDS011;47574;52.090;5.244;2023-03-24T05:03:14;20.7;;;3.7;;
61675;SDS011;47574;52.090;5.244;2023-03-24T05:04:51;20.5;;;3.3;;
61675;SDS011;47574;52.090;5.244;2023-03-24T05:06:27;20.41;;;4.0;;
61675;SDS011;47574;52.090;5.244;2023-03-24T05:09:40;22.2;;;4.3;;
61675;SDS011;47574;52.090;5.244;2023-03-24T05:11:16;18.3;;;3.5;;
61675;SDS011;47574;52.090;5.244;2023-03-24T05:12:53;21.8;;;4.1;;
61675;SDS011;47574;52.090;5.244;2023-03-24T05:14:29;23.8;;;4.3;;
61675;SDS011;47574;52.090;5.244;2023-03-24T05:17:42;23.3;;;4.3;;
61675;SDS011;47574;52.090;5.244;2023-03-24T05:19:19;21.0;;;3.9;;
61675;SDS011;47574;52.090;5.244;2023-03-24T05:20:55;25.7;;;4.1;;
61675;SDS011;47574;52.090;5.244;2023-03-24T05:24:07;17.11;;;3.4;;
61675;SDS011;47574;52.090;5.244;2023-03-24T05:25:44;19.0;;;3.6;;
61675;SDS011;47574;52.090;5.244;2023-03-24T05:27:21;18.11;;;3.6;;
61675;SDS011;47574;52.090;5.244;2023-03-24T05:30:34;21.3;;;4.2;;
61675;SDS011;47574;52.090;5.244;2023-03-24T05:32:10;23.6;;;4.3;;
61675;SDS011;47574;52.090;5.244;2023-03-24T05:33:46;27.3;;;4.41;;
61675;SDS011;47574;52.090;5.244;2023-03-24T05:35:22;21.3;;;4.3;;
61675;SDS011;47574;52.090;5.244;2023-03-24T05:38:34;23.1;;;3.7;;
61675;SDS011;47574;52.090;5.244;2023-03-24T05:40:11;26.7;;;4.91;;
61675;SDS011;47574;52.090;5.244;2023-03-24T05:41:48;26.4;;;4.91;;
61675;SDS011;47574;52.090;5.244;2023-03-24T05:45:01;26.7;;;4.61;;
61675;SDS011;47574;52.090;5.244;2023-03-24T05:46:37;27.2;;;5.0;;
61675;SDS011;47574;52.090;5.244;2023-03-24T05:48:13;27.4;;;4.7;;
61675;SDS011;47574;52.090;5.244;2023-03-24T05:51:25;24.6;;;4.8;;
61675;SDS011;47574;52.090;5.244;2023-03-24T05:53:02;30.7;;;4.8;;
61675;SDS011;47574;52.090;5.244;2023-03-24T05:54:38;24.8;;;5.0;;
61675;SDS011;47574;52.090;5.244;2023-03-24T05:57:51;27.7;;;5.0;;
61675;SDS011;47574;52.090;5.244;2023-03-24T05:59:27;21.6;;;4.3;;
61675;SDS011;47574;52.090;5.244;2023-03-24T06:01:05;30.5;;;5.11;;
61675;SDS011;47574;52.090;5.244;2023-03-24T06:02:43;27.3;;;5.0;;
61675;SDS011;47574;52.090;5.244;2023-03-24T06:05:58;23.4;;;4.8;;
61675;SDS011;47574;52.090;5.244;2023-03-24T06:07:35;24.1;;;4.5;;
61675;SDS011;47574;52.090;5.244;2023-03-24T06:09:14;30.7;;;5.11;;
61675;SDS011;47574;52.090;5.244;2023-03-24T06:12:26;25.2;;;4.61;;
61675;SDS011;47574;52.090;5.244;2023-03-24T06:14:02;23.3;;;4.8;;
61675;SDS011;47574;52.090;5.244;2023-03-24T06:15:39;23.9;;;4.41;;
61675;SDS011;47574;52.090;5.244;2023-03-24T06:17:15;24.2;;;4.3;;
61675;SDS011;47574;52.090;5.244;2023-03-24T06:20:28;24.5;;;5.0;;
61675;SDS011;47574;52.090;5.244;2023-03-24T06:22:04;23.3;;;4.41;;
61675;SDS011;47574;52.090;5.244;2023-03-24T06:23:40;18.91;;;4.5;;
61675;SDS011;47574;52.090;5.244;2023-03-24T06:26:54;23.5;;;4.41;;
61675;SDS011;47574;52.090;5.244;2023-03-24T06:28:30;24.6;;;4.41;;
61675;SDS011;47574;52.090;5.244;2023-03-24T06:30:06;18.2;;;4.1;;
61675;SDS011;47574;52.090;5.244;2023-03-24T06:33:19;19.91;;;4.61;;
61675;SDS011;47574;52.090;5.244;2023-03-24T06:34:55;27.1;;;5.0;;
61675;SDS011;47574;52.090;5.244;2023-03-24T06:36:31;18.0;;;4.0;;
61675;SDS011;47574;52.090;5.244;2023-03-24T06:38:08;18.2;;;3.8;;
61675;SDS011;47574;52.090;5.244;2023-03-24T06:41:20;20.41;;;3.7;;
61675;SDS011;47574;52.090;5.244;2023-03-24T06:42:57;20.41;;;4.2;;
61675;SDS011;47574;52.090;5.244;2023-03-24T06:44:33;20.5;;;3.7;;
61675;SDS011;47574;52.090;5.244;2023-03-24T06:47:46;22.0;;;4.3;;
61675;SDS011;47574;52.090;5.244;2023-03-24T06:49:22;13.9;;;3.8;;
61675;SDS011;47574;52.090;5.244;2023-03-24T06:51:01;17.41;;;3.8;;
61675;SDS011;47574;52.090;5.244;2023-03-24T06:54:13;20.6;;;4.5;;
61675;SDS011;47574;52.090;5.244;2023-03-24T06:55:49;17.41;;;4.0;;
61675;SDS011;47574;52.090;5.244;2023-03-24T06:57:25;18.2;;;3.9;;
61675;SDS011;47574;52.090;5.244;2023-03-24T07:00:38;17.2;;;3.8;;
61675;SDS011;47574;52.090;5.244;2023-03-24T07:02:15;17.91;;;4.0;;
61675;SDS011;47574;52.090;5.244;2023-03-24T07:03:51;16.4;;;3.9;;
61675;SDS011;47574;52.090;5.244;2023-03-24T07:05:28;20.5;;;4.2;;
61675;SDS011;47574;52.090;5.244;2023-03-24T07:08:40;18.41;;;4.2;;
61675;SDS011;47574;52.090;5.244;2023-03-24T07:10:16;17.2;;;3.9;;
61675;SDS011;47574;52.090;5.244;2023-03-24T07:11:53;18.3;;;3.9;;
61675;SDS011;47574;52.090;5.244;2023-03-24T07:15:05;21.0;;;4.0;;
61675;SDS011;47574;52.090;5.244;2023-03-24T07:16:43;20.0;;;3.7;;
61675;SDS011;47574;52.090;5.244;2023-03-24T07:18:19;16.8;;;3.8;;
61675;SDS011;47574;52.090;5.244;2023-03-24T07:21:31;15.4;;;3.5;;
61675;SDS011;47574;52.090;5.244;2023-03-24T07:23:08;19.3;;;4.1;;
61675;SDS011;47574;52.090;5.244;2023-03-24T07:24:44;18.2;;;4.3;;
61675;SDS011;47574;52.090;5.244;2023-03-24T07:26:20;22.5;;;4.0;;
61675;SDS011;47574;52.090;5.244;2023-03-24T07:29:32;15.7;;;3.8;;
61675;SDS011;47574;52.090;5.244;2023-03-24T07:31:08;17.91;;;4.0;;
61675;SDS011;47574;52.090;5.244;2023-03-24T07:32:44;18.91;;;3.8;;
61675;SDS011;47574;52.090;5.244;2023-03-24T07:35:57;16.7;;;3.6;;
61675;SDS011;47574;52.090;5.244;2023-03-24T07:37:33;16.3;;;3.8;;
61675;SDS011;47574;52.090;5.244;2023-03-24T07:39:08;17.7;;;4.0;;
61675;SDS011;47574;52.090;5.244;2023-03-24T07:42:20;17.2;;;4.1;;
61675;SDS011;47574;52.090;5.244;2023-03-24T07:43:57;19.91;;;3.9;;
61675;SDS011;47574;52.090;5.244;2023-03-24T07:45:33;21.0;;;3.6;;
61675;SDS011;47574;52.090;5.244;2023-03-24T07:47:09;15.0;;;3.7;;
61675;SDS011;47574;52.090;5.244;2023-03-24T07:50:21;19.61;;;4.3;;
61675;SDS011;47574;52.090;5.244;2023-03-24T07:51:57;18.41;;;3.8;;
61675;SDS011;47574;52.090;5.244;2023-03-24T07:53:33;14.9;;;3.3;;
61675;SDS011;47574;52.090;5.244;2023-03-24T07:56:47;18.41;;;4.0;;
61675;SDS011;47574;52.090;5.244;2023-03-24T07:58:23;19.11;;;4.1;;
61675;SDS011;47574;52.090;5.244;2023-03-24T07:59:59;17.91;;;4.2;;
61675;SDS011;47574;52.090;5.244;2023-03-24T08:03:12;20.6;;;3.7;;
61675;SDS011;47574;52.090;5.244;2023-03-24T08:04:49;18.0;;;4.0;;
61675;SDS011;47574;52.090;5.244;2023-03-24T08:06:26;21.3;;;4.3;;
61675;SDS011;47574;52.090;5.244;2023-03-24T08:09:38;18.11;;;4.5;;
61675;SDS011;47574;52.090;5.244;2023-03-24T08:11:14;21.0;;;4.1;;
61675;SDS011;47574;52.090;5.244;2023-03-24T08:12:50;19.3;;;3.9;;
61675;SDS011;47574;52.090;5.244;2023-03-24T08:14:27;15.4;;;3.7;;
61675;SDS011;47574;52.090;5.244;2023-03-24T08:17:40;20.8;;;4.1;;
61675;SDS011;47574;52.090;5.244;2023-03-24T08:19:16;15.0;;;3.8;;
61675;SDS011;47574;52.090;5.244;2023-03-24T08:20:53;17.3;;;3.9;;
61675;SDS011;47574;52.090;5.244;2023-03-24T08:24:07;18.91;;;3.7;;
61675;SDS011;47574;52.090;5.244;2023-03-24T08:25:43;19.11;;;4.2;;
61675;SDS011;47574;52.090;5.244;2023-03-24T08:27:19;18.8;;;4.0;;
61675;SDS011;47574;52.090;5.244;2023-03-24T08:30:32;17.8;;;3.7;;
61675;SDS011;47574;52.090;5.244;2023-03-24T08:32:08;18.2;;;4.41;;
61675;SDS011;47574;52.090;5.244;2023-03-24T08:33:44;19.41;;;4.0;;
61675;SDS011;47574;52.090;5.244;2023-03-24T08:35:21;13.7;;;3.3;;
61675;SDS011;47574;52.090;5.244;2023-03-24T08:38:38;18.61;;;4.61;;
61675;SDS011;47574;52.090;5.244;2023-03-24T08:40:15;19.0;;;4.2;;
61675;SDS011;47574;52.090;5.244;2023-03-24T08:41:54;14.7;;;3.4;;
61675;SDS011;47574;52.090;5.244;2023-03-24T08:45:09;16.11;;;3.9;;
61675;SDS011;47574;52.090;5.244;2023-03-24T08:46:48;20.41;;;4.2;;
61675;SDS011;47574;52.090;5.244;2023-03-24T08:48:24;17.91;;;4.0;;
61675;SDS011;47574;52.090;5.244;2023-03-24T08:50:03;17.8;;;4.1;;
61675;SDS011;47574;52.090;5.244;2023-03-24T08:53:18;19.41;;;3.7;;
61675;SDS011;47574;52.090;5.244;2023-03-24T08:54:55;19.11;;;4.3;;
61675;SDS011;47574;52.090;5.244;2023-03-24T08:56:31;17.91;;;3.6;;
61675;SDS011;47574;52.090;5.244;2023-03-24T08:59:47;16.4;;;4.2;;
61675;SDS011;47574;52.090;5.244;2023-03-24T09:01:23;15.6;;;3.6;;
61675;SDS011;47574;52.090;5.244;2023-03-24T09:03:00;16.4;;;3.5;;
61675;SDS011;47574;52.090;5.244;2023-03-24T09:04:36;19.0;;;3.7;;
61675;SDS011;47574;52.090;5.244;2023-03-24T09:07:49;19.61;;;4.3;;
61675;SDS011;47574;52.090;5.244;2023-03-24T09:09:26;17.5;;;3.8;;
61675;SDS011;47574;52.090;5.244;2023-03-24T09:11:02;19.8;;;4.0;;
61675;SDS011;47574;52.090;5.244;2023-03-24T09:14:18;13.0;;;3.7;;
61675;SDS011;47574;52.090;5.244;2023-03-24T09:15:56;15.3;;;3.5;;
61675;SDS011;47574;52.090;5.244;2023-03-24T09:17:34;16.11;;;3.6;;
61675;SDS011;47574;52.090;5.244;2023-03-24T09:20:48;20.3;;;3.7;;
61675;SDS011;47574;52.090;5.244;2023-03-24T09:22:24;14.4;;;3.5;;
61675;SDS011;47574;52.090;5.244;2023-03-24T09:24:00;14.6;;;3.4;;
61675;SDS011;47574;52.090;5.244;2023-03-24T09:25:37;16.9;;;3.5;;
61675;SDS011;47574;52.090;5.244;2023-03-24T09:28:51;13.5;;;3.3;;
61675;SDS011;47574;52.090;5.244;2023-03-24T09:30:27;14.5;;;3.5;;
61675;SDS011;47574;52.090;5.244;2023-03-24T09:32:03;12.1;;;3.4;;
61675;SDS011;47574;52.090;5.244;2023-03-24T09:35:15;12.1;;;3.3;;
61675;SDS011;47574;52.090;5.244;2023-03-24T09:36:52;11.2;;;3.2;;
61675;SDS011;47574;52.090;5.244;2023-03-24T09:38:28;14.5;;;3.9;;
61675;SDS011;47574;52.090;5.244;2023-03-24T09:41:43;15.8;;;3.6;;
61675;SDS011;47574;52.090;5.244;2023-03-24T09:43:21;14.8;;;2.9;;
61675;SDS011;47574;52.090;5.244;2023-03-24T09:45:04;16.5;;;3.0;;
61675;SDS011;47574;52.090;5.244;2023-03-24T09:46:47;11.6;;;2.7;;
61675;SDS011;47574;52.090;5.244;2023-03-24T09:50:15;13.7;;;3.0;;
61675;SDS011;47574;52.090;5.244;2023-03-24T09:51:55;16.3;;;3.3;;
61675;SDS011;47574;52.090;5.244;2023-03-24T09:53:39;9.6;;;2.9;;
61675;SDS011;47574;52.090;5.244;2023-03-24T09:55:22;13.3;;;2.8;;
61675;SDS011;47574;52.090;5.244;2023-03-24T09:57:02;11.1;;;2.9;;
61675;SDS011;47574;52.090;5.244;2023-03-24T10:00:35;11.4;;;3.1;;
61675;SDS011;47574;52.090;5.244;2023-03-24T10:02:13;12.0;;;3.1;;
61675;SDS011;47574;52.090;5.244;2023-03-24T10:03:52;13.7;;;2.9;;
61675;SDS011;47574;52.090;5.244;2023-03-24T10:05:34;16.5;;;3.4;;
61675;SDS011;47574;52.090;5.244;2023-03-24T10:09:07;13.9;;;3.0;;
61675;SDS011;47574;52.090;5.244;2023-03-24T10:10:56;12.8;;;3.0;;
61675;SDS011;47574;52.090;5.244;2023-03-24T10:12:38;16.8;;;3.5;;
61675;SDS011;47574;52.090;5.244;2023-03-24T10:14:23;14.2;;;3.2;;
61675;SDS011;47574;52.090;5.244;2023-03-24T10:16:17;13.7;;;3.2;;
61675;SDS011;47574;52.090;5.244;2023-03-24T10:18:07;13.9;;;3.0;;
61675;SDS011;47574;52.090;5.244;2023-03-24T10:20:09;13.6;;;2.9;;
61675;SDS011;47574;52.090;5.244;2023-03-24T10:23:43;13.0;;;3.1;;
61675;SDS011;47574;52.090;5.244;2023-03-24T10:25:34;16.7;;;3.3;;
61675;SDS011;47574;52.090;5.244;2023-03-24T10:27:21;13.1;;;3.1;;
61675;SDS011;47574;52.090;5.244;2023-03-24T10:29:17;15.7;;;3.6;;
61675;SDS011;47574;52.090;5.244;2023-03-24T10:31:03;13.1;;;3.5;;
61675;SDS011;47574;52.090;5.244;2023-03-24T10:32:45;11.9;;;3.3;;
61675;SDS011;47574;52.090;5.244;2023-03-24T10:36:04;16.3;;;3.3;;
61675;SDS011;47574;52.090;5.244;2023-03-24T10:37:43;13.9;;;3.3;;
61675;SDS011;47574;52.090;5.244;2023-03-24T10:39:20;17.8;;;3.7;;
61675;SDS011;47574;52.090;5.244;2023-03-24T10:40:56;15.9;;;3.4;;
61675;SDS011;47574;52.090;5.244;2023-03-24T10:44:11;18.3;;;3.0;;
61675;SDS011;47574;52.090;5.244;2023-03-24T10:45:49;15.7;;;3.2;;
61675;SDS011;47574;52.090;5.244;2023-03-24T10:47:29;16.11;;;3.4;;
61675;SDS011;47574;52.090;5.244;2023-03-24T10:50:51;14.5;;;3.2;;
61675;SDS011;47574;52.090;5.244;2023-03-24T10:52:37;15.1;;;3.1;;
61675;SDS011;47574;52.090;5.244;2023-03-24T10:54:15;14.7;;;3.0;;
61675;SDS011;47574;52.090;5.244;2023-03-24T10:55:53;14.2;;;3.1;;
61675;SDS011;47574;52.090;5.244;2023-03-24T10:59:14;11.4;;;3.0;;
61675;SDS011;47574;52.090;5.244;2023-03-24T11:00:54;17.41;;;3.6;;
61675;SDS011;47574;52.090;5.244;2023-03-24T11:02:33;12.5;;;3.0;;
61675;SDS011;47574;52.090;5.244;2023-03-24T11:04:11;10.8;;;3.4;;
61675;SDS011;47574;52.090;5.244;2023-03-24T11:07:34;11.3;;;3.2;;
61675;SDS011;47574;52.090;5.244;2023-03-24T11:09:17;16.0;;;3.1;;
61675;SDS011;47574;52.090;5.244;2023-03-24T11:10:56;12.0;;;3.2;;
61675;SDS011;47574;52.090;5.244;2023-03-24T11:12:33;14.6;;;2.6;;
61675;SDS011;47574;52.090;5.244;2023-03-24T11:16:03;10.6;;;3.0;;
61675;SDS011;47574;52.090;5.244;2023-03-24T11:17:46;11.9;;;2.8;;
61675;SDS011;47574;52.090;5.244;2023-03-24T11:19:26;15.4;;;3.3;;
61675;SDS011;47574;52.090;5.244;2023-03-24T11:21:03;11.3;;;3.0;;
61675;SDS011;47574;52.090;5.244;2023-03-24T11:22:41;8.71;;;2.6;;
61675;SDS011;47574;52.090;5.244;2023-03-24T11:26:12;11.2;;;2.9;;
61675;SDS011;47574;52.090;5.244;2023-03-24T11:27:50;12.6;;;3.1;;
61675;SDS011;47574;52.090;5.244;2023-03-24T11:29:29;10.0;;;3.3;;
61675;SDS011;47574;52.090;5.244;2023-03-24T11:31:08;10.9;;;3.3;;
61675;SDS011;47574;52.090;5.244;2023-03-24T11:34:23;10.8;;;3.0;;
61675;SDS011;47574;52.090;5.244;2023-03-24T11:36:05;12.4;;;3.4;;
61675;SDS011;47574;52.090;5.244;2023-03-24T11:38:14;14.0;;;3.2;;
61675;SDS011;47574;52.090;5.244;2023-03-24T11:40:04;11.2;;;2.7;;
61675;SDS011;47574;52.090;5.244;2023-03-24T11:42:02;12.2;;;3.2;;
61675;SDS011;47574;52.090;5.244;2023-03-24T11:43:49;12.3;;;3.1;;
61675;SDS011;47574;52.090;5.244;2023-03-24T11:45:42;15.2;;;3.3;;
61675;SDS011;47574;52.090;5.244;2023-03-24T11:49:05;11.1;;;3.1;;
61675;SDS011;47574;52.090;5.244;2023-03-24T11:50:44;13.1;;;3.0;;
61675;SDS011;47574;52.090;5.244;2023-03-24T11:52:22;10.0;;;3.0;;
61675;SDS011;47574;52.090;5.244;2023-03-24T11:54:04;14.2;;;2.8;;
61675;SDS011;47574;52.090;5.244;2023-03-24T11:57:38;11.0;;;3.0;;
61675;SDS011;47574;52.090;5.244;2023-03-24T11:59:26;10.0;;;2.7;;
61675;SDS011;47574;52.090;5.244;2023-03-24T12:01:11;12.1;;;2.6;;
61675;SDS011;47574;52.090;5.244;2023-03-24T12:03:06;12.0;;;2.9;;
61675;SDS011;47574;52.090;5.244;2023-03-24T12:05:10;12.5;;;2.7;;
61675;SDS011;47574;52.090;5.244;2023-03-24T12:07:36;8.9;;;2.21;;
61675;SDS011;47574;52.090;5.244;2023-03-24T12:10:20;11.7;;;2.7;;
61675;SDS011;47574;52.090;5.244;2023-03-24T12:12:24;9.21;;;2.21;;
61675;SDS011;47574;52.090;5.244;2023-03-24T12:14:10;11.5;;;2.5;;
61675;SDS011;47574;52.090;5.244;2023-03-24T12:15:55;12.2;;;2.7;;
61675;SDS011;47574;52.090;5.244;2023-03-24T12:17:44;8.6;;;2.1;;
61675;SDS011;47574;52.090;5.244;2023-03-24T12:19:38;9.6;;;2.7;;
61675;SDS011;47574;52.090;5.244;2023-03-24T12:21:41;12.4;;;2.7;;
61675;SDS011;47574;52.090;5.244;2023-03-24T12:23:31;11.4;;;2.7;;
61675;SDS011;47574;52.090;5.244;2023-03-24T12:27:14;15.9;;;2.8;;
61675;SDS011;47574;52.090;5.244;2023-03-24T12:29:10;13.2;;;2.7;;
61675;SDS011;47574;52.090;5.244;2023-03-24T12:31:30;11.9;;;2.6;;
61675;SDS011;47574;52.090;5.244;2023-03-24T12:34:19;11.8;;;2.31;;
61675;SDS011;47574;52.090;5.244;2023-03-24T12:37:11;11.8;;;2.4;;
61675;SDS011;47574;52.090;5.244;2023-03-24T12:39:00;11.9;;;2.21;;
61675;SDS011;47574;52.090;5.244;2023-03-24T12:40:55;10.0;;;2.4;;
61675;SDS011;47574;52.090;5.244;2023-03-24T12:43:09;10.7;;;2.21;;
61675;SDS011;47574;52.090;5.244;2023-03-24T12:45:02;10.5;;;2.21;;
61675;SDS011;47574;52.090;5.244;2023-03-24T12:46:57;9.1;;;2.1;;
61675;SDS011;47574;52.090;5.244;2023-03-24T12:48:46;10.6;;;2.6;;
61675;SDS011;47574;52.090;5.244;2023-03-24T12:51:32;8.5;;;2.21;;
61675;SDS011;47574;52.090;5.244;2023-03-24T12:53:22;9.4;;;2.6;;
61675;SDS011;47574;52.090;5.244;2023-03-24T12:55:15;9.0;;;2.21;;
61675;SDS011;47574;52.090;5.244;2023-03-24T12:56:56;10.6;;;2.4;;
61675;SDS011;47574;52.090;5.244;2023-03-24T13:00:19;11.1;;;2.0;;
61675;SDS011;47574;52.090;5.244;2023-03-24T13:02:01;9.71;;;1.9;;
61675;SDS011;47574;52.090;5.244;2023-03-24T13:04:00;8.0;;;1.9;;